sensor_id;sensor_type;location;lat;lon;timestamp;P1;durP1;ratioP1;P2;durP2;ratioP2
37527;SDS011;23372;52.050;4.810;2022-09-21T00:01:44;10.67;;;4.17;;
37527;SDS011;23372;52.050;4.810;2022-09-21T00:04:09;10.87;;;4.10;;
37527;SDS011;23372;52.050;4.810;2022-09-21T00:06:35;8.77;;;4.47;;
37527;SDS011;23372;52.050;4.810;2022-09-21T00:09:02;7.40;;;4.20;;
37527;SDS011;23372;52.050;4.810;2022-09-21T00:11:29;11.10;;;4.97;;
37527;SDS011;23372;52.050;4.810;2022-09-21T00:13:57;5.77;;;3.90;;
37527;SDS011;23372;52.050;4.810;2022-09-21T00:16:28;7.07;;;4.10;;
37527;SDS011;23372;52.050;4.810;2022-09-21T00:18:55;12.27;;;4.57;;
37527;SDS011;23372;52.050;4.810;2022-09-21T00:21:21;6.90;;;4.00;;
37527;SDS011;23372;52.050;4.810;2022-09-21T00:23:47;6.80;;;4.40;;
37527;SDS011;23372;52.050;4.810;2022-09-21T00:26:13;9.30;;;4.10;;
37527;SDS011;23372;52.050;4.810;2022-09-21T00:28:41;9.80;;;4.10;;
37527;SDS011;23372;52.050;4.810;2022-09-21T00:31:08;8.77;;;4.10;;
37527;SDS011;23372;52.050;4.810;2022-09-21T00:33:38;7.20;;;4.50;;
37527;SDS011;23372;52.050;4.810;2022-09-21T00:36:06;11.90;;;4.63;;
37527;SDS011;23372;52.050;4.810;2022-09-21T00:38:33;10.63;;;4.40;;
37527;SDS011;23372;52.050;4.810;2022-09-21T00:41:00;8.60;;;4.33;;
37527;SDS011;23372;52.050;4.810;2022-09-21T00:43:26;10.50;;;4.27;;
37527;SDS011;23372;52.050;4.810;2022-09-21T00:45:57;8.53;;;4.87;;
37527;SDS011;23372;52.050;4.810;2022-09-21T00:48:27;9.43;;;3.83;;
37527;SDS011;23372;52.050;4.810;2022-09-21T00:50:55;6.27;;;3.57;;
37527;SDS011;23372;52.050;4.810;2022-09-21T00:53:23;11.77;;;4.60;;
37527;SDS011;23372;52.050;4.810;2022-09-21T00:55:53;8.60;;;4.40;;
37527;SDS011;23372;52.050;4.810;2022-09-21T00:58:22;10.83;;;4.27;;
37527;SDS011;23372;52.050;4.810;2022-09-21T01:00:55;10.93;;;4.53;;
37527;SDS011;23372;52.050;4.810;2022-09-21T01:03:23;7.30;;;3.97;;
37527;SDS011;23372;52.050;4.810;2022-09-21T01:05:49;9.67;;;3.90;;
37527;SDS011;23372;52.050;4.810;2022-09-21T01:08:15;8.73;;;4.37;;
37527;SDS011;23372;52.050;4.810;2022-09-21T01:11:07;8.80;;;4.60;;
37527;SDS011;23372;52.050;4.810;2022-09-21T01:14:03;8.10;;;4.20;;
37527;SDS011;23372;52.050;4.810;2022-09-21T01:17:03;6.90;;;3.60;;
37527;SDS011;23372;52.050;4.810;2022-09-21T01:25:09;7.37;;;4.33;;
37527;SDS011;23372;52.050;4.810;2022-09-21T01:30:44;11.57;;;4.67;;
37527;SDS011;23372;52.050;4.810;2022-09-21T01:33:17;11.37;;;4.40;;
37527;SDS011;23372;52.050;4.810;2022-09-21T01:35:51;9.83;;;4.00;;
37527;SDS011;23372;52.050;4.810;2022-09-21T01:38:23;9.37;;;4.33;;
37527;SDS011;23372;52.050;4.810;2022-09-21T01:40:53;10.57;;;6.30;;
37527;SDS011;23372;52.050;4.810;2022-09-21T01:43:26;10.53;;;4.03;;
37527;SDS011;23372;52.050;4.810;2022-09-21T01:45:57;8.00;;;4.40;;
37527;SDS011;23372;52.050;4.810;2022-09-21T01:48:29;7.60;;;4.63;;
37527;SDS011;23372;52.050;4.810;2022-09-21T01:50:59;11.63;;;4.10;;
37527;SDS011;23372;52.050;4.810;2022-09-21T01:53:32;8.30;;;4.30;;
37527;SDS011;23372;52.050;4.810;2022-09-21T01:56:18;7.77;;;4.10;;
37527;SDS011;23372;52.050;4.810;2022-09-21T01:58:54;8.43;;;4.20;;
37527;SDS011;23372;52.050;4.810;2022-09-21T02:01:31;8.40;;;4.10;;
37527;SDS011;23372;52.050;4.810;2022-09-21T02:04:07;12.40;;;4.17;;
37527;SDS011;23372;52.050;4.810;2022-09-21T02:06:35;8.10;;;2.60;;
37527;SDS011;23372;52.050;4.810;2022-09-21T02:09:04;3.73;;;2.30;;
37527;SDS011;23372;52.050;4.810;2022-09-21T02:11:31;3.90;;;2.50;;
37527;SDS011;23372;52.050;4.810;2022-09-21T02:13:56;7.50;;;2.20;;
37527;SDS011;23372;52.050;4.810;2022-09-21T02:35:20;8.13;;;3.80;;
37527;SDS011;23372;52.050;4.810;2022-09-21T02:38:33;9.40;;;3.03;;
37527;SDS011;23372;52.050;4.810;2022-09-21T02:44:10;8.50;;;2.90;;
37527;SDS011;23372;52.050;4.810;2022-09-21T02:46:44;3.77;;;2.60;;
37527;SDS011;23372;52.050;4.810;2022-09-21T02:49:24;3.77;;;2.93;;
37527;SDS011;23372;52.050;4.810;2022-09-21T02:52:04;5.37;;;3.63;;
37527;SDS011;23372;52.050;4.810;2022-09-21T02:54:34;3.60;;;1.40;;
37527;SDS011;23372;52.050;4.810;2022-09-21T02:57:03;2.67;;;1.47;;
37527;SDS011;23372;52.050;4.810;2022-09-21T02:59:30;3.00;;;1.47;;
37527;SDS011;23372;52.050;4.810;2022-09-21T03:01:56;2.20;;;1.47;;
37527;SDS011;23372;52.050;4.810;2022-09-21T03:04:22;3.40;;;1.40;;
37527;SDS011;23372;52.050;4.810;2022-09-21T03:06:49;1.87;;;1.20;;
37527;SDS011;23372;52.050;4.810;2022-09-21T03:09:14;3.53;;;2.07;;
37527;SDS011;23372;52.050;4.810;2022-09-21T03:11:40;8.07;;;3.67;;
37527;SDS011;23372;52.050;4.810;2022-09-21T03:14:07;5.97;;;3.63;;
37527;SDS011;23372;52.050;4.810;2022-09-21T03:16:36;7.27;;;3.90;;
37527;SDS011;23372;52.050;4.810;2022-09-21T03:19:02;5.70;;;3.30;;
37527;SDS011;23372;52.050;4.810;2022-09-21T03:21:29;4.73;;;2.80;;
37527;SDS011;23372;52.050;4.810;2022-09-21T03:23:54;3.07;;;1.00;;
37527;SDS011;23372;52.050;4.810;2022-09-21T03:26:20;8.03;;;0.70;;
37527;SDS011;23372;52.050;4.810;2022-09-21T03:28:47;0.77;;;0.50;;
37527;SDS011;23372;52.050;4.810;2022-09-21T03:31:17;1.73;;;0.47;;
37527;SDS011;23372;52.050;4.810;2022-09-21T03:33:43;2.87;;;0.40;;
37527;SDS011;23372;52.050;4.810;2022-09-21T03:36:08;12.67;;;0.87;;
37527;SDS011;23372;52.050;4.810;2022-09-21T03:38:34;0.47;;;0.33;;
37527;SDS011;23372;52.050;4.810;2022-09-21T03:41:00;0.90;;;0.53;;
37527;SDS011;23372;52.050;4.810;2022-09-21T03:43:25;1.27;;;0.83;;
37527;SDS011;23372;52.050;4.810;2022-09-21T03:45:51;1.50;;;0.80;;
37527;SDS011;23372;52.050;4.810;2022-09-21T03:48:17;2.20;;;0.87;;
37527;SDS011;23372;52.050;4.810;2022-09-21T03:50:42;1.90;;;1.00;;
37527;SDS011;23372;52.050;4.810;2022-09-21T03:53:08;1.73;;;1.00;;
37527;SDS011;23372;52.050;4.810;2022-09-21T03:55:34;1.30;;;1.07;;
37527;SDS011;23372;52.050;4.810;2022-09-21T03:58:00;1.80;;;1.07;;
37527;SDS011;23372;52.050;4.810;2022-09-21T04:00:26;3.57;;;1.57;;
37527;SDS011;23372;52.050;4.810;2022-09-21T04:02:53;3.83;;;1.40;;
37527;SDS011;23372;52.050;4.810;2022-09-21T04:05:18;3.13;;;0.80;;
37527;SDS011;23372;52.050;4.810;2022-09-21T04:07:44;0.63;;;0.63;;
37527;SDS011;23372;52.050;4.810;2022-09-21T04:10:11;9.50;;;0.90;;
37527;SDS011;23372;52.050;4.810;2022-09-21T04:12:38;8.97;;;0.67;;
37527;SDS011;23372;52.050;4.810;2022-09-21T04:15:06;1.50;;;0.90;;
37527;SDS011;23372;52.050;4.810;2022-09-21T04:17:32;1.00;;;0.70;;
37527;SDS011;23372;52.050;4.810;2022-09-21T04:19:58;1.70;;;1.20;;
37527;SDS011;23372;52.050;4.810;2022-09-21T04:22:24;2.60;;;1.50;;
37527;SDS011;23372;52.050;4.810;2022-09-21T04:24:50;3.87;;;2.27;;
37527;SDS011;23372;52.050;4.810;2022-09-21T04:27:16;4.87;;;2.80;;
37527;SDS011;23372;52.050;4.810;2022-09-21T04:29:42;10.93;;;4.13;;
37527;SDS011;23372;52.050;4.810;2022-09-21T04:32:08;10.07;;;3.63;;
37527;SDS011;23372;52.050;4.810;2022-09-21T04:34:34;3.03;;;2.50;;
37527;SDS011;23372;52.050;4.810;2022-09-21T04:37:03;5.43;;;2.40;;
37527;SDS011;23372;52.050;4.810;2022-09-21T04:39:37;4.33;;;1.83;;
37527;SDS011;23372;52.050;4.810;2022-09-21T04:42:03;2.20;;;1.50;;
37527;SDS011;23372;52.050;4.810;2022-09-21T04:44:29;6.50;;;1.63;;
37527;SDS011;23372;52.050;4.810;2022-09-21T04:46:55;2.90;;;1.70;;
37527;SDS011;23372;52.050;4.810;2022-09-21T04:49:22;4.50;;;3.07;;
37527;SDS011;23372;52.050;4.810;2022-09-21T04:51:47;1.23;;;0.80;;
37527;SDS011;23372;52.050;4.810;2022-09-21T04:54:13;1.10;;;0.77;;
37527;SDS011;23372;52.050;4.810;2022-09-21T04:56:39;3.50;;;1.30;;
37527;SDS011;23372;52.050;4.810;2022-09-21T04:59:05;2.23;;;0.83;;
37527;SDS011;23372;52.050;4.810;2022-09-21T05:01:30;2.30;;;0.80;;
37527;SDS011;23372;52.050;4.810;2022-09-21T05:03:56;1.30;;;0.67;;
37527;SDS011;23372;52.050;4.810;2022-09-21T05:06:25;1.50;;;0.83;;
37527;SDS011;23372;52.050;4.810;2022-09-21T05:08:52;3.07;;;0.73;;
37527;SDS011;23372;52.050;4.810;2022-09-21T05:11:36;7.17;;;1.40;;
37527;SDS011;23372;52.050;4.810;2022-09-21T05:14:02;3.53;;;1.30;;
37527;SDS011;23372;52.050;4.810;2022-09-21T05:16:28;7.13;;;2.10;;
37527;SDS011;23372;52.050;4.810;2022-09-21T05:18:54;4.07;;;1.80;;
37527;SDS011;23372;52.050;4.810;2022-09-21T05:21:20;7.13;;;2.50;;
37527;SDS011;23372;52.050;4.810;2022-09-21T05:23:45;6.33;;;2.63;;
37527;SDS011;23372;52.050;4.810;2022-09-21T05:26:11;5.00;;;2.60;;
37527;SDS011;23372;52.050;4.810;2022-09-21T05:28:36;5.07;;;2.00;;
37527;SDS011;23372;52.050;4.810;2022-09-21T05:33:49;5.63;;;1.73;;
37527;SDS011;23372;52.050;4.810;2022-09-21T05:39:09;6.20;;;2.03;;
37527;SDS011;23372;52.050;4.810;2022-09-21T05:41:35;5.83;;;2.53;;
37527;SDS011;23372;52.050;4.810;2022-09-21T05:44:01;8.47;;;3.10;;
37527;SDS011;23372;52.050;4.810;2022-09-21T05:46:37;5.43;;;2.77;;
37527;SDS011;23372;52.050;4.810;2022-09-21T05:49:12;10.17;;;3.17;;
37527;SDS011;23372;52.050;4.810;2022-09-21T05:54:54;5.43;;;2.90;;
37527;SDS011;23372;52.050;4.810;2022-09-21T06:00:17;8.33;;;3.00;;
37527;SDS011;23372;52.050;4.810;2022-09-21T06:05:28;5.00;;;2.63;;
37527;SDS011;23372;52.050;4.810;2022-09-21T06:07:54;10.83;;;3.07;;
37527;SDS011;23372;52.050;4.810;2022-09-21T06:10:19;6.33;;;3.37;;
37527;SDS011;23372;52.050;4.810;2022-09-21T06:12:45;7.60;;;3.83;;
37527;SDS011;23372;52.050;4.810;2022-09-21T06:15:14;12.63;;;4.93;;
37527;SDS011;23372;52.050;4.810;2022-09-21T06:17:40;9.03;;;3.93;;
37527;SDS011;23372;52.050;4.810;2022-09-21T06:20:06;8.47;;;3.23;;
37527;SDS011;23372;52.050;4.810;2022-09-21T06:22:33;9.87;;;3.17;;
37527;SDS011;23372;52.050;4.810;2022-09-21T06:24:59;6.67;;;2.30;;
37527;SDS011;23372;52.050;4.810;2022-09-21T06:27:26;6.30;;;2.13;;
37527;SDS011;23372;52.050;4.810;2022-09-21T06:29:52;4.60;;;2.07;;
37527;SDS011;23372;52.050;4.810;2022-09-21T06:32:17;2.67;;;1.80;;
37527;SDS011;23372;52.050;4.810;2022-09-21T06:34:43;6.73;;;2.70;;
37527;SDS011;23372;52.050;4.810;2022-09-21T06:37:08;7.23;;;2.80;;
37527;SDS011;23372;52.050;4.810;2022-09-21T06:39:34;6.47;;;3.50;;
37527;SDS011;23372;52.050;4.810;2022-09-21T06:41:59;6.77;;;4.23;;
37527;SDS011;23372;52.050;4.810;2022-09-21T06:44:25;9.20;;;4.17;;
37527;SDS011;23372;52.050;4.810;2022-09-21T06:46:50;5.70;;;3.53;;
37527;SDS011;23372;52.050;4.810;2022-09-21T06:49:16;9.63;;;4.33;;
37527;SDS011;23372;52.050;4.810;2022-09-21T06:51:42;7.57;;;3.50;;
37527;SDS011;23372;52.050;4.810;2022-09-21T06:54:07;5.63;;;3.43;;
37527;SDS011;23372;52.050;4.810;2022-09-21T06:56:33;6.13;;;3.40;;
37527;SDS011;23372;52.050;4.810;2022-09-21T06:58:59;8.17;;;4.57;;
37527;SDS011;23372;52.050;4.810;2022-09-21T07:01:25;8.27;;;3.57;;
37527;SDS011;23372;52.050;4.810;2022-09-21T07:03:51;8.20;;;3.67;;
37527;SDS011;23372;52.050;4.810;2022-09-21T07:06:17;5.77;;;2.67;;
37527;SDS011;23372;52.050;4.810;2022-09-21T07:08:44;4.53;;;2.77;;
37527;SDS011;23372;52.050;4.810;2022-09-21T07:11:10;5.70;;;3.37;;
37527;SDS011;23372;52.050;4.810;2022-09-21T07:13:37;7.40;;;4.23;;
37527;SDS011;23372;52.050;4.810;2022-09-21T07:16:03;8.23;;;4.17;;
37527;SDS011;23372;52.050;4.810;2022-09-21T07:18:31;7.27;;;4.10;;
37527;SDS011;23372;52.050;4.810;2022-09-21T07:21:00;10.53;;;4.23;;
37527;SDS011;23372;52.050;4.810;2022-09-21T07:23:27;10.77;;;4.50;;
37527;SDS011;23372;52.050;4.810;2022-09-21T07:25:53;11.27;;;5.30;;
37527;SDS011;23372;52.050;4.810;2022-09-21T07:28:18;6.17;;;4.30;;
37527;SDS011;23372;52.050;4.810;2022-09-21T07:30:44;8.20;;;5.10;;
37527;SDS011;23372;52.050;4.810;2022-09-21T07:33:09;11.67;;;5.20;;
37527;SDS011;23372;52.050;4.810;2022-09-21T07:35:35;12.03;;;5.13;;
37527;SDS011;23372;52.050;4.810;2022-09-21T07:38:02;10.97;;;4.60;;
37527;SDS011;23372;52.050;4.810;2022-09-21T07:40:30;7.40;;;3.63;;
37527;SDS011;23372;52.050;4.810;2022-09-21T07:42:59;8.27;;;3.90;;
37527;SDS011;23372;52.050;4.810;2022-09-21T07:45:29;8.13;;;4.23;;
37527;SDS011;23372;52.050;4.810;2022-09-21T07:47:55;11.43;;;4.60;;
37527;SDS011;23372;52.050;4.810;2022-09-21T07:50:26;5.40;;;4.30;;
37527;SDS011;23372;52.050;4.810;2022-09-21T07:52:51;10.33;;;4.10;;
37527;SDS011;23372;52.050;4.810;2022-09-21T07:55:17;6.27;;;4.17;;
37527;SDS011;23372;52.050;4.810;2022-09-21T07:57:42;11.80;;;4.10;;
37527;SDS011;23372;52.050;4.810;2022-09-21T08:00:26;6.73;;;3.50;;
37527;SDS011;23372;52.050;4.810;2022-09-21T08:02:56;6.30;;;3.40;;
37527;SDS011;23372;52.050;4.810;2022-09-21T08:05:22;7.40;;;2.80;;
37527;SDS011;23372;52.050;4.810;2022-09-21T08:07:48;8.13;;;3.13;;
37527;SDS011;23372;52.050;4.810;2022-09-21T08:10:13;9.53;;;3.23;;
37527;SDS011;23372;52.050;4.810;2022-09-21T08:12:39;8.60;;;2.93;;
37527;SDS011;23372;52.050;4.810;2022-09-21T08:15:04;5.13;;;2.37;;
37527;SDS011;23372;52.050;4.810;2022-09-21T08:17:30;5.03;;;2.27;;
37527;SDS011;23372;52.050;4.810;2022-09-21T08:19:55;5.73;;;2.97;;
37527;SDS011;23372;52.050;4.810;2022-09-21T08:22:21;7.87;;;3.40;;
37527;SDS011;23372;52.050;4.810;2022-09-21T08:24:50;9.07;;;2.70;;
37527;SDS011;23372;52.050;4.810;2022-09-21T08:27:16;7.57;;;2.57;;
37527;SDS011;23372;52.050;4.810;2022-09-21T08:29:43;8.73;;;2.90;;
37527;SDS011;23372;52.050;4.810;2022-09-21T08:32:10;7.65;;;2.42;;
37527;SDS011;23372;52.050;4.810;2022-09-21T08:34:35;6.47;;;2.03;;
37527;SDS011;23372;52.050;4.810;2022-09-21T08:37:01;7.20;;;2.30;;
37527;SDS011;23372;52.050;4.810;2022-09-21T08:39:27;7.10;;;2.60;;
37527;SDS011;23372;52.050;4.810;2022-09-21T08:44:52;6.87;;;2.83;;
37527;SDS011;23372;52.050;4.810;2022-09-21T08:47:46;7.10;;;2.55;;
37527;SDS011;23372;52.050;4.810;2022-09-21T08:52:43;7.28;;;2.20;;
37527;SDS011;23372;52.050;4.810;2022-09-21T08:55:13;4.57;;;1.80;;
37527;SDS011;23372;52.050;4.810;2022-09-21T08:57:41;12.05;;;1.55;;
37527;SDS011;23372;52.050;4.810;2022-09-21T09:00:12;2.97;;;1.20;;
37527;SDS011;23372;52.050;4.810;2022-09-21T09:05:56;7.68;;;1.55;;
37527;SDS011;23372;52.050;4.810;2022-09-21T09:08:37;4.25;;;1.58;;
37527;SDS011;23372;52.050;4.810;2022-09-21T09:11:27;9.65;;;2.20;;
37527;SDS011;23372;52.050;4.810;2022-09-21T09:16:45;9.07;;;2.13;;
37527;SDS011;23372;52.050;4.810;2022-09-21T09:21:52;7.47;;;2.60;;
37527;SDS011;23372;52.050;4.810;2022-09-21T09:24:40;9.10;;;2.67;;
37527;SDS011;23372;52.050;4.810;2022-09-21T09:27:58;6.20;;;1.85;;
37527;SDS011;23372;52.050;4.810;2022-09-21T09:30:02;6.80;;;2.08;;
37527;SDS011;23372;52.050;4.810;2022-09-21T09:35:29;6.70;;;2.03;;
37527;SDS011;23372;52.050;4.810;2022-09-21T09:38:02;7.18;;;2.15;;
37527;SDS011;23372;52.050;4.810;2022-09-21T09:46:29;2.85;;;1.20;;
37527;SDS011;23372;52.050;4.810;2022-09-21T09:51:57;9.35;;;1.23;;
37527;SDS011;23372;52.050;4.810;2022-09-21T09:54:23;4.45;;;1.83;;
37527;SDS011;23372;52.050;4.810;2022-09-21T09:56:51;3.53;;;0.90;;
37527;SDS011;23372;52.050;4.810;2022-09-21T09:59:22;4.38;;;1.20;;
37527;SDS011;23372;52.050;4.810;2022-09-21T10:04:55;2.38;;;0.75;;
37527;SDS011;23372;52.050;4.810;2022-09-21T10:07:34;4.22;;;1.48;;
37527;SDS011;23372;52.050;4.810;2022-09-21T10:10:28;2.60;;;0.93;;
37527;SDS011;23372;52.050;4.810;2022-09-21T10:13:15;4.53;;;1.00;;
37527;SDS011;23372;52.050;4.810;2022-09-21T10:15:57;6.70;;;1.40;;
37527;SDS011;23372;52.050;4.810;2022-09-21T10:18:28;4.93;;;1.02;;
37527;SDS011;23372;52.050;4.810;2022-09-21T10:21:04;5.05;;;1.08;;
37527;SDS011;23372;52.050;4.810;2022-09-21T10:23:32;4.78;;;1.38;;
37527;SDS011;23372;52.050;4.810;2022-09-21T10:26:09;8.25;;;1.23;;
37527;SDS011;23372;52.050;4.810;2022-09-21T10:28:36;4.22;;;1.15;;
37527;SDS011;23372;52.050;4.810;2022-09-21T10:31:22;13.75;;;2.65;;
37527;SDS011;23372;52.050;4.810;2022-09-21T10:33:50;2.90;;;0.90;;
37527;SDS011;23372;52.050;4.810;2022-09-21T10:38:51;4.70;;;1.20;;
37527;SDS011;23372;52.050;4.810;2022-09-21T10:41:17;5.03;;;0.98;;
37527;SDS011;23372;52.050;4.810;2022-09-21T10:43:43;4.05;;;0.60;;
37527;SDS011;23372;52.050;4.810;2022-09-21T10:46:09;7.32;;;1.10;;
37527;SDS011;23372;52.050;4.810;2022-09-21T10:48:34;6.30;;;1.10;;
37527;SDS011;23372;52.050;4.810;2022-09-21T10:51:01;5.60;;;0.80;;
37527;SDS011;23372;52.050;4.810;2022-09-21T10:53:31;7.40;;;0.80;;
37527;SDS011;23372;52.050;4.810;2022-09-21T10:58:31;5.63;;;1.00;;
37527;SDS011;23372;52.050;4.810;2022-09-21T11:01:12;4.22;;;0.90;;
37527;SDS011;23372;52.050;4.810;2022-09-21T11:03:48;4.30;;;0.90;;
37527;SDS011;23372;52.050;4.810;2022-09-21T11:06:39;3.58;;;0.80;;
37527;SDS011;23372;52.050;4.810;2022-09-21T11:09:11;3.65;;;0.82;;
37527;SDS011;23372;52.050;4.810;2022-09-21T11:11:49;6.00;;;0.82;;
37527;SDS011;23372;52.050;4.810;2022-09-21T11:17:44;3.53;;;0.80;;
37527;SDS011;23372;52.050;4.810;2022-09-21T11:25:46;5.22;;;1.17;;
37527;SDS011;23372;52.050;4.810;2022-09-21T11:28:25;3.67;;;0.70;;
37527;SDS011;23372;52.050;4.810;2022-09-21T11:31:02;2.40;;;0.57;;
37527;SDS011;23372;52.050;4.810;2022-09-21T11:39:13;2.65;;;0.80;;
37527;SDS011;23372;52.050;4.810;2022-09-21T11:42:22;2.58;;;0.90;;
37527;SDS011;23372;52.050;4.810;2022-09-21T11:45:01;3.90;;;0.75;;
37527;SDS011;23372;52.050;4.810;2022-09-21T11:47:54;6.63;;;0.75;;
37527;SDS011;23372;52.050;4.810;2022-09-21T11:53:33;3.15;;;0.57;;
37527;SDS011;23372;52.050;4.810;2022-09-21T11:56:20;3.20;;;0.50;;
37527;SDS011;23372;52.050;4.810;2022-09-21T12:07:16;5.22;;;0.80;;
37527;SDS011;23372;52.050;4.810;2022-09-21T12:09:57;5.28;;;0.60;;
37527;SDS011;23372;52.050;4.810;2022-09-21T12:18:19;3.85;;;0.60;;
37527;SDS011;23372;52.050;4.810;2022-09-21T12:21:00;4.20;;;0.63;;
37527;SDS011;23372;52.050;4.810;2022-09-21T12:23:38;3.33;;;0.70;;
37527;SDS011;23372;52.050;4.810;2022-09-21T12:26:04;5.28;;;0.60;;
37527;SDS011;23372;52.050;4.810;2022-09-21T12:28:45;2.28;;;0.60;;
37527;SDS011;23372;52.050;4.810;2022-09-21T12:31:19;2.55;;;0.60;;
37527;SDS011;23372;52.050;4.810;2022-09-21T12:33:54;5.72;;;1.13;;
37527;SDS011;23372;52.050;4.810;2022-09-21T12:36:30;5.07;;;0.68;;
37527;SDS011;23372;52.050;4.810;2022-09-21T12:39:02;5.60;;;1.50;;
37527;SDS011;23372;52.050;4.810;2022-09-21T12:41:36;2.58;;;0.68;;
37527;SDS011;23372;52.050;4.810;2022-09-21T12:44:24;6.45;;;0.60;;
37527;SDS011;23372;52.050;4.810;2022-09-21T12:47:02;2.40;;;0.50;;
37527;SDS011;23372;52.050;4.810;2022-09-21T12:49:45;3.20;;;0.60;;
37527;SDS011;23372;52.050;4.810;2022-09-21T12:52:18;4.50;;;0.60;;
37527;SDS011;23372;52.050;4.810;2022-09-21T12:57:44;2.70;;;0.60;;
37527;SDS011;23372;52.050;4.810;2022-09-21T13:00:22;2.10;;;0.65;;
37527;SDS011;23372;52.050;4.810;2022-09-21T13:03:03;2.38;;;0.60;;
37527;SDS011;23372;52.050;4.810;2022-09-21T13:05:55;5.28;;;1.10;;
37527;SDS011;23372;52.050;4.810;2022-09-21T13:08:46;7.45;;;0.82;;
37527;SDS011;23372;52.050;4.810;2022-09-21T13:11:12;2.15;;;0.70;;
37527;SDS011;23372;52.050;4.810;2022-09-21T13:18:54;6.03;;;0.82;;
37527;SDS011;23372;52.050;4.810;2022-09-21T13:21:26;5.32;;;1.52;;
37527;SDS011;23372;52.050;4.810;2022-09-21T13:23:57;2.58;;;0.93;;
37527;SDS011;23372;52.050;4.810;2022-09-21T13:27:10;5.20;;;0.85;;
37527;SDS011;23372;52.050;4.810;2022-09-21T13:34:22;2.55;;;0.80;;
37527;SDS011;23372;52.050;4.810;2022-09-21T13:47:54;5.30;;;1.25;;
37527;SDS011;23372;52.050;4.810;2022-09-21T13:50:40;5.85;;;1.10;;
37527;SDS011;23372;52.050;4.810;2022-09-21T13:53:30;3.97;;;0.75;;
37527;SDS011;23372;52.050;4.810;2022-09-21T13:56:01;3.38;;;0.65;;
37527;SDS011;23372;52.050;4.810;2022-09-21T13:58:33;3.05;;;0.52;;
37527;SDS011;23372;52.050;4.810;2022-09-21T14:01:17;3.58;;;0.68;;
37527;SDS011;23372;52.050;4.810;2022-09-21T14:03:58;1.83;;;0.60;;
37527;SDS011;23372;52.050;4.810;2022-09-21T14:06:33;3.47;;;1.05;;
37527;SDS011;23372;52.050;4.810;2022-09-21T14:09:06;4.70;;;0.52;;
37527;SDS011;23372;52.050;4.810;2022-09-21T14:11:46;1.58;;;0.63;;
37527;SDS011;23372;52.050;4.810;2022-09-21T14:14:22;2.53;;;0.75;;
37527;SDS011;23372;52.050;4.810;2022-09-21T14:16:53;4.78;;;0.90;;
37527;SDS011;23372;52.050;4.810;2022-09-21T14:24:40;4.93;;;1.08;;
37527;SDS011;23372;52.050;4.810;2022-09-21T14:27:13;5.90;;;0.98;;
37527;SDS011;23372;52.050;4.810;2022-09-21T14:29:54;1.55;;;0.50;;
37527;SDS011;23372;52.050;4.810;2022-09-21T14:32:29;8.00;;;0.95;;
37527;SDS011;23372;52.050;4.810;2022-09-21T14:35:14;5.57;;;0.77;;
37527;SDS011;23372;52.050;4.810;2022-09-21T14:37:50;5.53;;;1.00;;
37527;SDS011;23372;52.050;4.810;2022-09-21T14:40:23;4.75;;;0.80;;
37527;SDS011;23372;52.050;4.810;2022-09-21T14:42:51;2.70;;;0.50;;
37527;SDS011;23372;52.050;4.810;2022-09-21T14:45:19;4.63;;;0.60;;
37527;SDS011;23372;52.050;4.810;2022-09-21T14:47:59;6.30;;;0.75;;
37527;SDS011;23372;52.050;4.810;2022-09-21T14:51:21;2.35;;;0.70;;
37527;SDS011;23372;52.050;4.810;2022-09-21T14:56:29;1.75;;;0.60;;
37527;SDS011;23372;52.050;4.810;2022-09-21T14:59:17;4.68;;;0.68;;
37527;SDS011;23372;52.050;4.810;2022-09-21T15:02:18;3.17;;;0.82;;
37527;SDS011;23372;52.050;4.810;2022-09-21T15:07:54;2.00;;;1.15;;
37527;SDS011;23372;52.050;4.810;2022-09-21T15:11:35;3.60;;;0.50;;
37527;SDS011;23372;52.050;4.810;2022-09-21T15:16:44;3.83;;;0.60;;
37527;SDS011;23372;52.050;4.810;2022-09-21T15:21:43;1.95;;;0.35;;
37527;SDS011;23372;52.050;4.810;2022-09-21T15:24:17;1.48;;;0.43;;
37527;SDS011;23372;52.050;4.810;2022-09-21T15:26:50;4.50;;;0.50;;
37527;SDS011;23372;52.050;4.810;2022-09-21T15:29:25;7.93;;;0.70;;
37527;SDS011;23372;52.050;4.810;2022-09-21T15:31:52;5.38;;;0.63;;
37527;SDS011;23372;52.050;4.810;2022-09-21T15:34:18;1.85;;;0.50;;
37527;SDS011;23372;52.050;4.810;2022-09-21T15:36:45;5.32;;;1.25;;
37527;SDS011;23372;52.050;4.810;2022-09-21T15:39:25;4.63;;;0.80;;
37527;SDS011;23372;52.050;4.810;2022-09-21T15:44:41;5.28;;;0.73;;
37527;SDS011;23372;52.050;4.810;2022-09-21T15:47:12;5.38;;;0.85;;
37527;SDS011;23372;52.050;4.810;2022-09-21T15:49:40;3.03;;;0.68;;
37527;SDS011;23372;52.050;4.810;2022-09-21T15:52:40;5.63;;;0.93;;
37527;SDS011;23372;52.050;4.810;2022-09-21T15:55:08;4.38;;;0.82;;
37527;SDS011;23372;52.050;4.810;2022-09-21T15:57:40;2.45;;;0.73;;
37527;SDS011;23372;52.050;4.810;2022-09-21T16:02:39;3.20;;;1.30;;
37527;SDS011;23372;52.050;4.810;2022-09-21T16:05:06;2.92;;;1.52;;
37527;SDS011;23372;52.050;4.810;2022-09-21T16:07:38;4.72;;;0.82;;
37527;SDS011;23372;52.050;4.810;2022-09-21T16:13:08;5.18;;;0.90;;
37527;SDS011;23372;52.050;4.810;2022-09-21T16:16:04;4.82;;;0.90;;
37527;SDS011;23372;52.050;4.810;2022-09-21T16:18:32;3.10;;;0.73;;
37527;SDS011;23372;52.050;4.810;2022-09-21T16:21:30;5.75;;;0.90;;
37527;SDS011;23372;52.050;4.810;2022-09-21T16:24:09;3.75;;;0.90;;
37527;SDS011;23372;52.050;4.810;2022-09-21T16:26:40;3.05;;;0.60;;
37527;SDS011;23372;52.050;4.810;2022-09-21T16:31:47;5.15;;;0.93;;
37527;SDS011;23372;52.050;4.810;2022-09-21T16:36:46;3.95;;;0.88;;
37527;SDS011;23372;52.050;4.810;2022-09-21T16:39:14;1.42;;;0.50;;
37527;SDS011;23372;52.050;4.810;2022-09-21T16:44:12;3.13;;;0.68;;
37527;SDS011;23372;52.050;4.810;2022-09-21T16:46:50;3.88;;;0.80;;
37527;SDS011;23372;52.050;4.810;2022-09-21T16:49:18;2.75;;;0.70;;
37527;SDS011;23372;52.050;4.810;2022-09-21T16:51:45;1.52;;;0.60;;
37527;SDS011;23372;52.050;4.810;2022-09-21T16:54:13;2.72;;;0.60;;
37527;SDS011;23372;52.050;4.810;2022-09-21T16:56:39;4.95;;;0.80;;
37527;SDS011;23372;52.050;4.810;2022-09-21T16:59:11;5.18;;;1.60;;
37527;SDS011;23372;52.050;4.810;2022-09-21T17:01:44;6.32;;;0.68;;
37527;SDS011;23372;52.050;4.810;2022-09-21T17:04:14;2.55;;;0.60;;
37527;SDS011;23372;52.050;4.810;2022-09-21T17:06:41;7.97;;;0.75;;
37527;SDS011;23372;52.050;4.810;2022-09-21T17:09:14;5.65;;;0.88;;
37527;SDS011;23372;52.050;4.810;2022-09-21T17:11:42;6.68;;;0.60;;
37527;SDS011;23372;52.050;4.810;2022-09-21T17:14:11;3.92;;;0.63;;
37527;SDS011;23372;52.050;4.810;2022-09-21T17:16:40;4.30;;;0.93;;
37527;SDS011;23372;52.050;4.810;2022-09-21T17:19:10;4.38;;;0.90;;
37527;SDS011;23372;52.050;4.810;2022-09-21T17:21:35;5.15;;;0.73;;
37527;SDS011;23372;52.050;4.810;2022-09-21T17:24:01;6.88;;;1.00;;
37527;SDS011;23372;52.050;4.810;2022-09-21T17:26:27;3.55;;;0.90;;
37527;SDS011;23372;52.050;4.810;2022-09-21T17:28:53;4.25;;;0.93;;
37527;SDS011;23372;52.050;4.810;2022-09-21T17:31:18;3.72;;;1.10;;
37527;SDS011;23372;52.050;4.810;2022-09-21T17:33:47;5.47;;;0.90;;
37527;SDS011;23372;52.050;4.810;2022-09-21T17:36:14;2.03;;;0.82;;
37527;SDS011;23372;52.050;4.810;2022-09-21T17:38:40;5.50;;;0.98;;
37527;SDS011;23372;52.050;4.810;2022-09-21T17:44:06;2.63;;;0.90;;
37527;SDS011;23372;52.050;4.810;2022-09-21T17:46:46;7.40;;;1.00;;
37527;SDS011;23372;52.050;4.810;2022-09-21T17:49:18;1.83;;;0.70;;
37527;SDS011;23372;52.050;4.810;2022-09-21T17:51:44;5.90;;;0.98;;
37527;SDS011;23372;52.050;4.810;2022-09-21T17:54:28;2.65;;;0.80;;
37527;SDS011;23372;52.050;4.810;2022-09-21T17:57:01;3.28;;;1.00;;
37527;SDS011;23372;52.050;4.810;2022-09-21T17:59:35;5.80;;;1.20;;
37527;SDS011;23372;52.050;4.810;2022-09-21T18:02:02;2.38;;;1.10;;